METAR Data
IDs: Format: Raw Decoded Include TAF

Data at: 0240 UTC 10 Dec 2022

K4S1 092215Z AUTO 16023G43KT 5SM -RA SCT027 BKN035 BKN040 08/06 A2975 RMK AO2 P0002
K4S1 092155Z AUTO 17027G42KT 4SM -RA SCT027 SCT035 SCT041 08/06 A2977 RMK AO2 P0005
K4S1 092135Z AUTO 15033G50KT 130V190 5SM -RA SCT027 SCT035 SCT040 08/06 A2977 RMK AO2 P0003
K4S1 092115Z AUTO 16031G40KT 5SM -RA SCT026 BKN035 08/05 A2979 RMK AO2 P0002
K4S1 092055Z AUTO 17023G38KT 7SM -RA SCT028 SCT035 08/05 A2981 RMK AO2 P0001
K4S1 092035Z AUTO 17023G34KT 10SM -RA CLR 08/05 A2983 RMK AO2
K4S1 092015Z AUTO 16026G37KT 140V200 10SM RA CLR 08/05 A2984 RMK AO2
K4S1 091955Z AUTO 17026G37KT 10SM DZ CLR 08/04 A2986 RMK AO2
K4S1 091935Z AUTO 16020G34KT 130V190 10SM -DZ SCT027 08/05 A2988 RMK AO2
K4S1 091915Z AUTO 17017G35KT 10SM DZ SCT025 08/05 A2991 RMK AO2